Map

Track Data

SID SEASON NUMBER BASIN SUBBASIN NAME ISO_TIME NATURE LAT LON WMO_WIND WMO_PRES WMO_AGENCY TRACK_TYPE DIST2LAND LANDFALL IFLAG USA_AGENCY USA_ATCF_ID USA_LAT USA_LON USA_RECORD USA_STATUS USA_WIND USA_PRES USA_SSHS USA_R34_NE USA_R34_SE USA_R34_SW USA_R34_NW USA_R50_NE USA_R50_SE USA_R50_SW USA_R50_NW USA_R64_NE USA_R64_SE USA_R64_SW USA_R64_NW USA_POCI USA_ROCI USA_RMW USA_EYE TOKYO_LAT TOKYO_LON TOKYO_GRADE TOKYO_WIND TOKYO_PRES TOKYO_R50_DIR TOKYO_R50_LONG TOKYO_R50_SHORT TOKYO_R30_DIR TOKYO_R30_LONG TOKYO_R30_SHORT TOKYO_LAND CMA_LAT CMA_LON CMA_CAT CMA_WIND CMA_PRES HKO_LAT HKO_LON HKO_CAT HKO_WIND HKO_PRES NEWDELHI_LAT NEWDELHI_LON NEWDELHI_GRADE NEWDELHI_WIND NEWDELHI_PRES NEWDELHI_CI NEWDELHI_DP NEWDELHI_POCI REUNION_LAT REUNION_LON REUNION_TYPE REUNION_WIND REUNION_PRES REUNION_TNUM REUNION_CI REUNION_RMW REUNION_R34_NE REUNION_R34_SE REUNION_R34_SW REUNION_R34_NW REUNION_R50_NE REUNION_R50_SE REUNION_R50_SW REUNION_R50_NW REUNION_R64_NE REUNION_R64_SE REUNION_R64_SW REUNION_R64_NW BOM_LAT BOM_LON BOM_TYPE BOM_WIND BOM_PRES BOM_TNUM BOM_CI BOM_RMW BOM_R34_NE BOM_R34_SE BOM_R34_SW BOM_R34_NW BOM_R50_NE BOM_R50_SE BOM_R50_SW BOM_R50_NW BOM_R64_NE BOM_R64_SE BOM_R64_SW BOM_R64_NW BOM_ROCI BOM_POCI BOM_EYE BOM_POS_METHOD BOM_PRES_METHOD NADI_LAT NADI_LON NADI_CAT NADI_WIND NADI_PRES WELLINGTON_LAT WELLINGTON_LON WELLINGTON_WIND WELLINGTON_PRES DS824_LAT DS824_LON DS824_STAGE DS824_WIND DS824_PRES TD9636_LAT TD9636_LON TD9636_STAGE TD9636_WIND TD9636_PRES TD9635_LAT TD9635_LON TD9635_WIND TD9635_PRES TD9635_ROCI NEUMANN_LAT NEUMANN_LON NEUMANN_CLASS NEUMANN_WIND NEUMANN_PRES MLC_LAT MLC_LON MLC_CLASS MLC_WIND MLC_PRES USA_GUST BOM_GUST BOM_GUST_PER REUNION_GUST REUNION_GUST_PER USA_SEAHGT USA_SEARAD_NE USA_SEARAD_SE USA_SEARAD_SW USA_SEARAD_NW STORM_SPEED STORM_DIR
1929245N15127 1929 54 WP MM NOT_NAMED 1929-09-01 22:00:00 NR 14.9000 126.900 main 291 271 __________O___ -1 14.9000 126.900 3 5 283
1929245N15127 1929 54 WP MM NOT_NAMED 1929-09-02 00:00:00 NR 14.9389 126.728 main 271 257 __________P___ -1 14.9389 126.728 3 5 283
1929245N15127 1929 54 WP MM NOT_NAMED 1929-09-02 03:00:00 NR 14.9951 126.472 main 257 229 __________P___ -1 14.9951 126.472 3 5 282
1929245N15127 1929 54 WP MM NOT_NAMED 1929-09-02 06:00:00 NR 15.0459 126.221 main 229 218 __________P___ -1 15.0459 126.221 3 5 281
1929245N15127 1929 54 WP MM NOT_NAMED 1929-09-02 09:00:00 NR 15.0883 125.978 main 218 210 __________P___ -1 15.0883 125.978 3 5 280
1929245N15127 1929 54 WP MM NOT_NAMED 1929-09-02 10:00:00 NR 15.1000 125.900 main 210 194 __________O___ -1 15.1000 125.900 4 5 278
1929245N15127 1929 54 WP MM NOT_NAMED 1929-09-02 12:00:00 NR 15.1197 125.747 main 194 178 __________P___ -1 15.1197 125.747 4 4 277
1929245N15127 1929 54 WP MM NOT_NAMED 1929-09-02 15:00:00 NR 15.1428 125.524 main 178 170 __________P___ -1 15.1428 125.524 4 4 276
1929245N15127 1929 54 WP MM NOT_NAMED 1929-09-02 18:00:00 NR 15.1640 125.302 main 172 159 __________P___ -1 15.1640 125.302 4 4 276
1929245N15127 1929 54 WP MM NOT_NAMED 1929-09-02 21:00:00 NR 15.1895 125.077 main 159 154 __________P___ -1 15.1895 125.077 4 4 277
1929245N15127 1929 54 WP MM NOT_NAMED 1929-09-02 22:00:00 NR 15.2000 125.000 main 154 144 __________O___ -1 15.2000 125.000 4 5 280
1929245N15127 1929 54 WP MM NOT_NAMED 1929-09-03 00:00:00 NR 15.2302 124.842 main 144 141 __________P___ -1 15.2302 124.842 4 5 282
1929245N15127 1929 54 WP MM NOT_NAMED 1929-09-03 03:00:00 NR 15.2819 124.598 main 149 145 __________P___ -1 15.2819 124.598 4 5 282
1929245N15127 1929 54 WP MM NOT_NAMED 1929-09-03 06:00:00 NR 15.3357 124.347 main 145 145 __________P___ -1 15.3357 124.347 4 5 282
1929245N15127 1929 54 WP MM NOT_NAMED 1929-09-03 09:00:00 NR 15.3854 124.088 main 156 156 __________P___ -1 15.3854 124.088 4 5 281
1929245N15127 1929 54 WP MM NOT_NAMED 1929-09-03 10:00:00 NR 15.4000 124.000 main 157 157 __________O___ -1 15.4000 124.000 4 5 278
1929245N15127 1929 54 WP MM NOT_NAMED 1929-09-03 12:00:00 NR 15.4195 123.843 main 160 153 __________P___ -1 15.4195 123.843 4 5 276
1929245N15127 1929 54 WP MM NOT_NAMED 1929-09-03 15:00:00 NR 15.4424 123.602 main 153 141 __________P___ -1 15.4424 123.602 4 5 275
1929245N15127 1929 54 WP MM NOT_NAMED 1929-09-03 18:00:00 NR 15.4636 123.335 main 141 116 __________P___ -1 15.4636 123.335 4 6 275
1929245N15127 1929 54 WP MM NOT_NAMED 1929-09-03 21:00:00 NR 15.4893 123.020 main 116 108 __________P___ -1 15.4893 123.020 4 6 275
1929245N15127 1929 54 WP MM NOT_NAMED 1929-09-03 22:00:00 NR 15.5000 122.900 main 108 85 __________O___ -1 15.5000 122.900 4 7 276
1929245N15127 1929 54 WP MM NOT_NAMED 1929-09-04 00:00:00 NR 15.5276 122.637 main 85 49 __________P___ -1 15.5276 122.637 4 8 276
1929245N15127 1929 54 WP MM NOT_NAMED 1929-09-04 03:00:00 NR 15.5753 122.192 main 49 15 __________P___ -1 15.5753 122.192 4 9 276
1929245N15127 1929 54 WP MM NOT_NAMED 1929-09-04 06:00:00 NR 15.6278 121.700 main 15 0 __________P___ -1 15.6278 121.700 4 10 276
1929245N15127 1929 54 WP MM NOT_NAMED 1929-09-04 09:00:00 NR 15.6820 121.178 main 0 0 __________P___ -1 15.6820 121.178 4 10 276
1929245N15127 1929 54 WP MM NOT_NAMED 1929-09-04 10:00:00 NR 15.7000 121.000 main 0 0 __________O___ -1 15.7000 121.000 4 10 275
1929245N15127 1929 54 WP MM NOT_NAMED 1929-09-04 12:00:00 NR 15.7279 120.653 main 0 0 __________P___ -1 15.7279 120.653 4 10 275
1929245N15127 1929 54 WP MM NOT_NAMED 1929-09-04 15:00:00 NR 15.7698 120.113 main 0 0 __________P___ -1 15.7698 120.113 4 11 275
1929245N15127 1929 54 WP MM NOT_NAMED 1929-09-04 18:00:00 NR 15.8172 119.557 main 24 30 __________P___ -1 15.8172 119.557 4 11 276
1929245N15127 1929 54 WP MM NOT_NAMED 1929-09-04 21:00:00 NR 15.8765 118.990 main 75 75 __________P___ -1 15.8765 118.990 4 11 276
1929245N15127 1929 54 WP MM NOT_NAMED 1929-09-04 22:00:00 NR 15.9000 118.800 main 96 96 __________O___ -1 15.9000 118.800 4 11 278
1929245N15127 1929 54 WP MM NOT_NAMED 1929-09-05 00:00:00 NR 15.9526 118.409 main 139 139 __________P___ -1 15.9526 118.409 4 11 279
1929245N15127 1929 54 WP MM NOT_NAMED 1929-09-05 03:00:00 NR 16.0442 117.817 main 203 203 __________P___ -1 16.0442 117.817 4 11 280
1929245N15127 1929 54 WP MM NOT_NAMED 1929-09-05 06:00:00 NR 16.1480 117.233 main 267 268 __________P___ -1 16.1480 117.233 4 11 281
1929245N15127 1929 54 WP MM NOT_NAMED 1929-09-05 09:00:00 NR 16.2609 116.676 main 322 332 __________P___ -1 16.2609 116.676 4 11 282
1929245N15127 1929 54 WP MM NOT_NAMED 1929-09-05 10:00:00 NR 16.3000 116.500 main 343 343 __________O___ -1 16.3000 116.500 4 9 283
1929245N15127 1929 54 WP MM NOT_NAMED 1929-09-05 12:00:00 NR 16.3658 116.213 main 376 376 __________P___ -1 16.3658 116.213 4 8 285
1929245N15127 1929 54 WP MM NOT_NAMED 1929-09-05 15:00:00 NR 16.4712 115.815 main 420 420 __________P___ -1 16.4712 115.815 4 8 286
1929245N15127 1929 54 WP MM NOT_NAMED 1929-09-05 18:00:00 NR 16.5936 115.398 main 463 463 __________P___ -1 16.5936 115.398 4 9 287
1929245N15127 1929 54 WP MM NOT_NAMED 1929-09-05 21:00:00 NR 16.7428 114.897 main 518 497 __________P___ -1 16.7428 114.897 4 11 287
1929245N15127 1929 54 WP MM NOT_NAMED 1929-09-05 22:00:00 NR 16.8000 114.700 main 497 440 __________O___ -1 16.8000 114.700 4 13 288
1929245N15127 1929 54 WP MM NOT_NAMED 1929-09-06 00:00:00 NR 16.9512 114.231 main 440 355 __________P___ -1 16.9512 114.231 4 15 288
1929245N15127 1929 54 WP MM NOT_NAMED 1929-09-06 03:00:00 NR 17.2034 113.426 main 355 263 __________P___ -1 17.2034 113.426 4 17 287
1929245N15127 1929 54 WP MM NOT_NAMED 1929-09-06 06:00:00 NR 17.4498 112.538 main 263 169 __________P___ -1 17.4498 112.538 4 18 284
1929245N15127 1929 54 WP MM NOT_NAMED 1929-09-06 09:00:00 NR 17.6502 111.610 main 169 153 __________P___ -1 17.6502 111.610 4 18 282
1929245N15127 1929 54 WP MM NOT_NAMED 1929-09-06 10:00:00 NR 17.7000 111.300 main 146 99 __________O___ -1 17.7000 111.300 4 18 278
1929245N15127 1929 54 WP MM NOT_NAMED 1929-09-06 12:00:00 NR 17.7684 110.685 main 99 45 __________P___ -1 17.7684 110.685 4 17 274
1929245N15127 1929 54 WP MM NOT_NAMED 1929-09-06 15:00:00 NR 17.8043 109.778 main 45 44 __________P___ -1 17.8043 109.778 4 17 270
1929245N15127 1929 54 WP MM NOT_NAMED 1929-09-06 18:00:00 NR 17.7814 108.882 main 67 70 __________P___ -1 17.7814 108.882 4 17 267
1929245N15127 1929 54 WP MM NOT_NAMED 1929-09-06 21:00:00 NR 17.7232 107.995 main 116 92 __________P___ -1 17.7232 107.995 4 17 266
1929245N15127 1929 54 WP MM NOT_NAMED 1929-09-06 22:00:00 NR 17.7000 107.700 main 92 __________O___ -1 17.7000 107.700 4 17 265

Digital Typhoon Data and Search

About IBTrACS Database

This database is a web-friendly format of International Best Track Archive for Climate Stewardship (IBTrACS), a global best track data archive curated by NOAA dating back to 1842.

Updated: 2021-11-26